sensor_id;sensor_type;location;lat;lon;timestamp;P1;durP1;ratioP1;P2;durP2;ratioP2
53261;SDS011;39658;51.090;-1.786;2023-08-12T00:00:11;11.50;;;2.58;;
53261;SDS011;39658;51.090;-1.786;2023-08-12T00:02:38;7.88;;;2.33;;
53261;SDS011;39658;51.090;-1.786;2023-08-12T00:05:05;7.60;;;2.50;;
53261;SDS011;39658;51.090;-1.786;2023-08-12T00:07:32;16.70;;;2.63;;
53261;SDS011;39658;51.090;-1.786;2023-08-12T00:10:00;16.52;;;2.88;;
53261;SDS011;39658;51.090;-1.786;2023-08-12T00:12:29;8.27;;;1.85;;
53261;SDS011;39658;51.090;-1.786;2023-08-12T00:14:55;14.05;;;2.88;;
53261;SDS011;39658;51.090;-1.786;2023-08-12T00:17:24;13.10;;;3.03;;
53261;SDS011;39658;51.090;-1.786;2023-08-12T00:19:51;8.85;;;2.28;;
53261;SDS011;39658;51.090;-1.786;2023-08-12T00:22:18;10.18;;;3.00;;
53261;SDS011;39658;51.090;-1.786;2023-08-12T00:24:44;16.15;;;2.95;;
53261;SDS011;39658;51.090;-1.786;2023-08-12T00:27:11;6.28;;;1.98;;
53261;SDS011;39658;51.090;-1.786;2023-08-12T00:29:38;12.85;;;2.60;;
53261;SDS011;39658;51.090;-1.786;2023-08-12T00:32:05;8.02;;;2.28;;
53261;SDS011;39658;51.090;-1.786;2023-08-12T00:34:34;12.88;;;2.92;;
53261;SDS011;39658;51.090;-1.786;2023-08-12T00:37:00;13.52;;;3.42;;
53261;SDS011;39658;51.090;-1.786;2023-08-12T00:39:27;10.48;;;3.17;;
53261;SDS011;39658;51.090;-1.786;2023-08-12T00:41:54;7.25;;;2.17;;
53261;SDS011;39658;51.090;-1.786;2023-08-12T00:44:21;16.90;;;3.70;;
53261;SDS011;39658;51.090;-1.786;2023-08-12T00:46:48;14.40;;;2.80;;
53261;SDS011;39658;51.090;-1.786;2023-08-12T00:49:16;7.28;;;2.25;;
53261;SDS011;39658;51.090;-1.786;2023-08-12T00:51:45;12.88;;;2.72;;
53261;SDS011;39658;51.090;-1.786;2023-08-12T00:54:13;13.27;;;2.88;;
53261;SDS011;39658;51.090;-1.786;2023-08-12T00:56:41;14.50;;;3.60;;
53261;SDS011;39658;51.090;-1.786;2023-08-12T00:59:09;9.05;;;1.98;;
53261;SDS011;39658;51.090;-1.786;2023-08-12T01:01:38;15.65;;;2.72;;
53261;SDS011;39658;51.090;-1.786;2023-08-12T01:04:07;11.73;;;2.63;;
53261;SDS011;39658;51.090;-1.786;2023-08-12T01:06:34;8.90;;;2.08;;
53261;SDS011;39658;51.090;-1.786;2023-08-12T01:09:03;8.77;;;2.83;;
53261;SDS011;39658;51.090;-1.786;2023-08-12T01:11:33;10.63;;;2.17;;
53261;SDS011;39658;51.090;-1.786;2023-08-12T01:14:06;11.38;;;3.00;;
53261;SDS011;39658;51.090;-1.786;2023-08-12T01:16:39;10.45;;;2.38;;
53261;SDS011;39658;51.090;-1.786;2023-08-12T01:19:10;11.77;;;3.75;;
53261;SDS011;39658;51.090;-1.786;2023-08-12T01:21:46;13.50;;;2.70;;
53261;SDS011;39658;51.090;-1.786;2023-08-12T01:24:17;11.00;;;2.67;;
53261;SDS011;39658;51.090;-1.786;2023-08-12T01:26:46;8.48;;;2.00;;
53261;SDS011;39658;51.090;-1.786;2023-08-12T01:29:13;14.43;;;2.92;;
53261;SDS011;39658;51.090;-1.786;2023-08-12T01:31:42;19.92;;;3.72;;
53261;SDS011;39658;51.090;-1.786;2023-08-12T01:34:15;12.32;;;2.45;;
53261;SDS011;39658;51.090;-1.786;2023-08-12T01:36:49;8.65;;;2.50;;
53261;SDS011;39658;51.090;-1.786;2023-08-12T01:39:22;8.85;;;2.20;;
53261;SDS011;39658;51.090;-1.786;2023-08-12T01:41:50;10.95;;;2.97;;
53261;SDS011;39658;51.090;-1.786;2023-08-12T01:44:17;12.50;;;2.83;;
53261;SDS011;39658;51.090;-1.786;2023-08-12T01:46:45;11.50;;;3.55;;
53261;SDS011;39658;51.090;-1.786;2023-08-12T01:49:12;11.88;;;3.15;;
53261;SDS011;39658;51.090;-1.786;2023-08-12T01:51:38;14.07;;;2.67;;
53261;SDS011;39658;51.090;-1.786;2023-08-12T01:54:06;14.80;;;3.30;;
53261;SDS011;39658;51.090;-1.786;2023-08-12T01:56:34;18.40;;;4.00;;
53261;SDS011;39658;51.090;-1.786;2023-08-12T01:59:01;10.02;;;2.28;;
53261;SDS011;39658;51.090;-1.786;2023-08-12T02:01:27;7.43;;;2.90;;
53261;SDS011;39658;51.090;-1.786;2023-08-12T02:03:54;12.50;;;2.25;;
53261;SDS011;39658;51.090;-1.786;2023-08-12T02:06:21;13.80;;;3.15;;
53261;SDS011;39658;51.090;-1.786;2023-08-12T02:08:48;8.95;;;1.98;;
53261;SDS011;39658;51.090;-1.786;2023-08-12T02:11:15;8.07;;;2.25;;
53261;SDS011;39658;51.090;-1.786;2023-08-12T02:13:43;7.95;;;1.83;;
53261;SDS011;39658;51.090;-1.786;2023-08-12T02:16:10;9.77;;;3.38;;
53261;SDS011;39658;51.090;-1.786;2023-08-12T02:18:37;14.32;;;4.45;;
53261;SDS011;39658;51.090;-1.786;2023-08-12T02:21:04;10.85;;;3.35;;
53261;SDS011;39658;51.090;-1.786;2023-08-12T02:23:31;10.45;;;3.10;;
53261;SDS011;39658;51.090;-1.786;2023-08-12T02:25:57;11.68;;;2.70;;
53261;SDS011;39658;51.090;-1.786;2023-08-12T02:28:25;9.23;;;2.38;;
53261;SDS011;39658;51.090;-1.786;2023-08-12T02:30:53;12.55;;;2.78;;
53261;SDS011;39658;51.090;-1.786;2023-08-12T02:33:20;10.38;;;2.70;;
53261;SDS011;39658;51.090;-1.786;2023-08-12T02:35:47;15.85;;;2.85;;
53261;SDS011;39658;51.090;-1.786;2023-08-12T02:38:13;8.80;;;2.30;;
53261;SDS011;39658;51.090;-1.786;2023-08-12T02:40:40;9.23;;;3.00;;
53261;SDS011;39658;51.090;-1.786;2023-08-12T02:43:07;17.38;;;4.07;;
53261;SDS011;39658;51.090;-1.786;2023-08-12T02:45:36;12.98;;;2.75;;
53261;SDS011;39658;51.090;-1.786;2023-08-12T02:48:05;23.73;;;4.03;;
53261;SDS011;39658;51.090;-1.786;2023-08-12T02:50:32;10.85;;;2.63;;
53261;SDS011;39658;51.090;-1.786;2023-08-12T02:52:59;18.95;;;2.63;;
53261;SDS011;39658;51.090;-1.786;2023-08-12T02:55:26;13.85;;;2.42;;
53261;SDS011;39658;51.090;-1.786;2023-08-12T02:57:54;9.00;;;3.05;;
53261;SDS011;39658;51.090;-1.786;2023-08-12T03:00:21;15.50;;;3.17;;
53261;SDS011;39658;51.090;-1.786;2023-08-12T03:02:48;14.68;;;3.35;;
53261;SDS011;39658;51.090;-1.786;2023-08-12T03:05:16;12.73;;;3.58;;
53261;SDS011;39658;51.090;-1.786;2023-08-12T03:07:43;13.73;;;3.28;;
53261;SDS011;39658;51.090;-1.786;2023-08-12T03:10:10;10.27;;;2.92;;
53261;SDS011;39658;51.090;-1.786;2023-08-12T03:12:37;13.55;;;3.72;;
53261;SDS011;39658;51.090;-1.786;2023-08-12T03:15:04;9.57;;;3.00;;
53261;SDS011;39658;51.090;-1.786;2023-08-12T03:17:32;22.25;;;3.90;;
53261;SDS011;39658;51.090;-1.786;2023-08-12T03:19:59;12.95;;;3.20;;
53261;SDS011;39658;51.090;-1.786;2023-08-12T03:22:28;9.32;;;2.53;;
53261;SDS011;39658;51.090;-1.786;2023-08-12T03:24:55;11.05;;;3.08;;
53261;SDS011;39658;51.090;-1.786;2023-08-12T03:27:21;11.98;;;2.83;;
53261;SDS011;39658;51.090;-1.786;2023-08-12T03:29:48;18.95;;;4.90;;
53261;SDS011;39658;51.090;-1.786;2023-08-12T03:32:15;16.65;;;2.97;;
53261;SDS011;39658;51.090;-1.786;2023-08-12T03:34:42;11.68;;;3.30;;
53261;SDS011;39658;51.090;-1.786;2023-08-12T03:37:09;15.27;;;3.03;;
53261;SDS011;39658;51.090;-1.786;2023-08-12T03:39:37;14.15;;;3.63;;
53261;SDS011;39658;51.090;-1.786;2023-08-12T03:42:04;14.80;;;3.22;;
53261;SDS011;39658;51.090;-1.786;2023-08-12T03:44:31;11.30;;;3.50;;
53261;SDS011;39658;51.090;-1.786;2023-08-12T03:46:58;16.88;;;3.70;;
53261;SDS011;39658;51.090;-1.786;2023-08-12T03:49:25;14.35;;;3.42;;
53261;SDS011;39658;51.090;-1.786;2023-08-12T03:51:51;13.93;;;3.40;;
53261;SDS011;39658;51.090;-1.786;2023-08-12T03:54:18;17.17;;;3.47;;
53261;SDS011;39658;51.090;-1.786;2023-08-12T03:56:46;13.38;;;3.15;;
53261;SDS011;39658;51.090;-1.786;2023-08-12T03:59:13;12.30;;;3.55;;
53261;SDS011;39658;51.090;-1.786;2023-08-12T04:01:40;13.60;;;3.33;;
53261;SDS011;39658;51.090;-1.786;2023-08-12T04:04:07;17.75;;;2.85;;
53261;SDS011;39658;51.090;-1.786;2023-08-12T04:06:33;13.07;;;3.28;;
53261;SDS011;39658;51.090;-1.786;2023-08-12T04:09:00;17.90;;;3.50;;
53261;SDS011;39658;51.090;-1.786;2023-08-12T04:11:27;13.05;;;3.40;;
53261;SDS011;39658;51.090;-1.786;2023-08-12T04:13:56;12.65;;;3.47;;
53261;SDS011;39658;51.090;-1.786;2023-08-12T04:16:23;17.23;;;2.90;;
53261;SDS011;39658;51.090;-1.786;2023-08-12T04:18:49;13.65;;;3.92;;
53261;SDS011;39658;51.090;-1.786;2023-08-12T04:21:16;15.45;;;2.80;;
53261;SDS011;39658;51.090;-1.786;2023-08-12T04:23:43;23.50;;;4.18;;
53261;SDS011;39658;51.090;-1.786;2023-08-12T04:26:10;12.98;;;3.55;;
53261;SDS011;39658;51.090;-1.786;2023-08-12T04:28:37;22.15;;;3.92;;
53261;SDS011;39658;51.090;-1.786;2023-08-12T04:31:07;12.95;;;3.40;;
53261;SDS011;39658;51.090;-1.786;2023-08-12T04:33:34;12.70;;;2.65;;
53261;SDS011;39658;51.090;-1.786;2023-08-12T04:36:00;11.73;;;3.83;;
53261;SDS011;39658;51.090;-1.786;2023-08-12T04:38:27;9.60;;;2.85;;
53261;SDS011;39658;51.090;-1.786;2023-08-12T04:40:54;16.20;;;3.97;;
53261;SDS011;39658;51.090;-1.786;2023-08-12T04:43:21;15.73;;;3.72;;
53261;SDS011;39658;51.090;-1.786;2023-08-12T04:45:48;15.02;;;3.20;;
53261;SDS011;39658;51.090;-1.786;2023-08-12T04:48:16;12.50;;;3.40;;
53261;SDS011;39658;51.090;-1.786;2023-08-12T04:50:43;8.73;;;3.22;;
53261;SDS011;39658;51.090;-1.786;2023-08-12T04:53:09;15.35;;;3.55;;
53261;SDS011;39658;51.090;-1.786;2023-08-12T04:55:36;10.55;;;3.20;;
53261;SDS011;39658;51.090;-1.786;2023-08-12T04:58:03;22.00;;;3.40;;
53261;SDS011;39658;51.090;-1.786;2023-08-12T05:00:30;14.73;;;4.25;;
53261;SDS011;39658;51.090;-1.786;2023-08-12T05:02:57;9.27;;;3.10;;
53261;SDS011;39658;51.090;-1.786;2023-08-12T05:05:26;9.82;;;3.25;;
53261;SDS011;39658;51.090;-1.786;2023-08-12T05:07:53;16.98;;;3.47;;
53261;SDS011;39658;51.090;-1.786;2023-08-12T05:10:20;18.08;;;3.22;;
53261;SDS011;39658;51.090;-1.786;2023-08-12T05:12:47;18.52;;;3.05;;
53261;SDS011;39658;51.090;-1.786;2023-08-12T05:15:15;19.38;;;3.83;;
53261;SDS011;39658;51.090;-1.786;2023-08-12T05:17:42;17.35;;;3.58;;
53261;SDS011;39658;51.090;-1.786;2023-08-12T05:20:09;20.85;;;3.35;;
53261;SDS011;39658;51.090;-1.786;2023-08-12T05:22:37;17.88;;;2.83;;
53261;SDS011;39658;51.090;-1.786;2023-08-12T05:25:04;19.25;;;4.05;;
53261;SDS011;39658;51.090;-1.786;2023-08-12T05:27:32;12.85;;;4.10;;
53261;SDS011;39658;51.090;-1.786;2023-08-12T05:29:58;16.20;;;3.47;;
53261;SDS011;39658;51.090;-1.786;2023-08-12T05:32:26;19.60;;;3.35;;
53261;SDS011;39658;51.090;-1.786;2023-08-12T05:34:52;11.85;;;2.50;;
53261;SDS011;39658;51.090;-1.786;2023-08-12T05:37:21;14.02;;;2.70;;
53261;SDS011;39658;51.090;-1.786;2023-08-12T05:39:49;18.92;;;3.35;;
53261;SDS011;39658;51.090;-1.786;2023-08-12T05:42:16;21.02;;;3.50;;
53261;SDS011;39658;51.090;-1.786;2023-08-12T05:44:43;20.98;;;3.88;;
53261;SDS011;39658;51.090;-1.786;2023-08-12T05:47:10;19.58;;;3.15;;
53261;SDS011;39658;51.090;-1.786;2023-08-12T05:49:37;10.70;;;2.95;;
53261;SDS011;39658;51.090;-1.786;2023-08-12T05:52:04;12.02;;;3.10;;
53261;SDS011;39658;51.090;-1.786;2023-08-12T05:54:31;15.73;;;3.15;;
53261;SDS011;39658;51.090;-1.786;2023-08-12T05:56:59;17.38;;;2.70;;
53261;SDS011;39658;51.090;-1.786;2023-08-12T05:59:26;17.77;;;2.75;;
53261;SDS011;39658;51.090;-1.786;2023-08-12T06:01:53;13.57;;;2.92;;
53261;SDS011;39658;51.090;-1.786;2023-08-12T06:04:20;15.15;;;2.85;;
53261;SDS011;39658;51.090;-1.786;2023-08-12T06:06:47;17.08;;;3.17;;
53261;SDS011;39658;51.090;-1.786;2023-08-12T06:09:14;11.95;;;2.60;;
53261;SDS011;39658;51.090;-1.786;2023-08-12T06:11:41;11.68;;;2.67;;
53261;SDS011;39658;51.090;-1.786;2023-08-12T06:14:09;13.40;;;2.78;;
53261;SDS011;39658;51.090;-1.786;2023-08-12T06:16:36;13.38;;;2.83;;
53261;SDS011;39658;51.090;-1.786;2023-08-12T06:19:03;13.60;;;3.03;;
53261;SDS011;39658;51.090;-1.786;2023-08-12T06:21:30;11.38;;;2.88;;
53261;SDS011;39658;51.090;-1.786;2023-08-12T06:23:57;11.38;;;2.97;;
53261;SDS011;39658;51.090;-1.786;2023-08-12T06:26:24;19.25;;;3.20;;
53261;SDS011;39658;51.090;-1.786;2023-08-12T06:28:51;12.30;;;2.85;;
53261;SDS011;39658;51.090;-1.786;2023-08-12T06:31:19;15.38;;;2.95;;
53261;SDS011;39658;51.090;-1.786;2023-08-12T06:33:46;16.33;;;2.63;;
53261;SDS011;39658;51.090;-1.786;2023-08-12T06:36:13;18.60;;;2.78;;
53261;SDS011;39658;51.090;-1.786;2023-08-12T06:38:40;14.52;;;3.40;;
53261;SDS011;39658;51.090;-1.786;2023-08-12T06:41:06;11.30;;;2.13;;
53261;SDS011;39658;51.090;-1.786;2023-08-12T06:43:33;11.85;;;2.40;;
53261;SDS011;39658;51.090;-1.786;2023-08-12T06:46:00;13.55;;;2.50;;
53261;SDS011;39658;51.090;-1.786;2023-08-12T06:48:29;15.77;;;2.65;;
53261;SDS011;39658;51.090;-1.786;2023-08-12T06:50:56;20.48;;;2.85;;
53261;SDS011;39658;51.090;-1.786;2023-08-12T06:53:24;11.00;;;2.40;;
53261;SDS011;39658;51.090;-1.786;2023-08-12T06:58:19;9.13;;;2.00;;
53261;SDS011;39658;51.090;-1.786;2023-08-12T07:00:47;14.95;;;2.58;;
53261;SDS011;39658;51.090;-1.786;2023-08-12T07:03:13;11.13;;;2.65;;
53261;SDS011;39658;51.090;-1.786;2023-08-12T07:05:42;8.15;;;1.70;;
53261;SDS011;39658;51.090;-1.786;2023-08-12T07:08:09;13.50;;;3.53;;
53261;SDS011;39658;51.090;-1.786;2023-08-12T07:10:37;6.80;;;1.83;;
53261;SDS011;39658;51.090;-1.786;2023-08-12T07:13:04;9.13;;;2.80;;
53261;SDS011;39658;51.090;-1.786;2023-08-12T07:15:31;7.93;;;2.15;;
53261;SDS011;39658;51.090;-1.786;2023-08-12T07:17:57;10.43;;;2.55;;
53261;SDS011;39658;51.090;-1.786;2023-08-12T07:20:24;14.70;;;2.72;;
53261;SDS011;39658;51.090;-1.786;2023-08-12T07:22:53;15.18;;;2.30;;
53261;SDS011;39658;51.090;-1.786;2023-08-12T07:25:21;8.48;;;2.13;;
53261;SDS011;39658;51.090;-1.786;2023-08-12T07:27:48;16.33;;;2.38;;
53261;SDS011;39658;51.090;-1.786;2023-08-12T07:30:15;17.10;;;2.83;;
53261;SDS011;39658;51.090;-1.786;2023-08-12T07:32:42;12.13;;;2.28;;
53261;SDS011;39658;51.090;-1.786;2023-08-12T07:35:10;10.25;;;2.65;;
53261;SDS011;39658;51.090;-1.786;2023-08-12T07:37:36;13.02;;;2.95;;
53261;SDS011;39658;51.090;-1.786;2023-08-12T07:40:05;15.90;;;2.10;;
53261;SDS011;39658;51.090;-1.786;2023-08-12T07:42:33;12.02;;;2.63;;
53261;SDS011;39658;51.090;-1.786;2023-08-12T07:45:00;14.85;;;2.72;;
53261;SDS011;39658;51.090;-1.786;2023-08-12T07:47:27;20.00;;;3.67;;
53261;SDS011;39658;51.090;-1.786;2023-08-12T07:49:54;10.15;;;1.50;;
53261;SDS011;39658;51.090;-1.786;2023-08-12T07:52:21;11.43;;;2.50;;
53261;SDS011;39658;51.090;-1.786;2023-08-12T07:54:48;21.65;;;3.22;;
53261;SDS011;39658;51.090;-1.786;2023-08-12T07:57:16;13.10;;;2.60;;
53261;SDS011;39658;51.090;-1.786;2023-08-12T07:59:43;18.98;;;2.20;;
53261;SDS011;39658;51.090;-1.786;2023-08-12T08:02:10;15.82;;;2.70;;
53261;SDS011;39658;51.090;-1.786;2023-08-12T08:04:37;10.02;;;2.10;;
53261;SDS011;39658;51.090;-1.786;2023-08-12T08:07:03;14.18;;;2.85;;
53261;SDS011;39658;51.090;-1.786;2023-08-12T08:09:30;8.93;;;1.98;;
53261;SDS011;39658;51.090;-1.786;2023-08-12T08:11:58;8.98;;;2.70;;
53261;SDS011;39658;51.090;-1.786;2023-08-12T08:14:27;5.15;;;1.38;;
53261;SDS011;39658;51.090;-1.786;2023-08-12T08:16:54;13.13;;;2.88;;
53261;SDS011;39658;51.090;-1.786;2023-08-12T08:19:21;13.52;;;1.80;;
53261;SDS011;39658;51.090;-1.786;2023-08-12T08:21:48;14.70;;;3.00;;
53261;SDS011;39658;51.090;-1.786;2023-08-12T08:24:14;14.18;;;2.95;;
53261;SDS011;39658;51.090;-1.786;2023-08-12T08:26:41;12.20;;;2.58;;
53261;SDS011;39658;51.090;-1.786;2023-08-12T08:29:10;9.18;;;2.13;;
53261;SDS011;39658;51.090;-1.786;2023-08-12T08:31:38;13.82;;;2.60;;
53261;SDS011;39658;51.090;-1.786;2023-08-12T08:34:05;15.07;;;2.47;;
53261;SDS011;39658;51.090;-1.786;2023-08-12T08:36:32;13.07;;;2.92;;
53261;SDS011;39658;51.090;-1.786;2023-08-12T08:38:59;12.25;;;2.80;;
53261;SDS011;39658;51.090;-1.786;2023-08-12T08:41:26;15.38;;;3.88;;
53261;SDS011;39658;51.090;-1.786;2023-08-12T08:43:56;14.63;;;2.60;;
53261;SDS011;39658;51.090;-1.786;2023-08-12T08:46:28;17.55;;;3.10;;
53261;SDS011;39658;51.090;-1.786;2023-08-12T08:48:58;15.02;;;3.03;;
53261;SDS011;39658;51.090;-1.786;2023-08-12T08:51:26;17.70;;;3.55;;
53261;SDS011;39658;51.090;-1.786;2023-08-12T08:53:56;12.60;;;2.80;;
53261;SDS011;39658;51.090;-1.786;2023-08-12T08:56:24;15.27;;;2.58;;
53261;SDS011;39658;51.090;-1.786;2023-08-12T08:58:51;12.57;;;3.53;;
53261;SDS011;39658;51.090;-1.786;2023-08-12T09:01:19;23.23;;;2.30;;
53261;SDS011;39658;51.090;-1.786;2023-08-12T09:03:48;15.55;;;2.97;;
53261;SDS011;39658;51.090;-1.786;2023-08-12T09:06:20;17.05;;;2.70;;
53261;SDS011;39658;51.090;-1.786;2023-08-12T09:08:48;12.82;;;2.92;;
53261;SDS011;39658;51.090;-1.786;2023-08-12T09:11:17;20.70;;;3.15;;
53261;SDS011;39658;51.090;-1.786;2023-08-12T09:13:45;15.00;;;2.58;;
53261;SDS011;39658;51.090;-1.786;2023-08-12T09:16:13;18.55;;;2.60;;
53261;SDS011;39658;51.090;-1.786;2023-08-12T09:18:40;10.23;;;2.00;;
53261;SDS011;39658;51.090;-1.786;2023-08-12T09:21:08;10.27;;;1.95;;
53261;SDS011;39658;51.090;-1.786;2023-08-12T09:23:37;11.40;;;2.20;;
53261;SDS011;39658;51.090;-1.786;2023-08-12T09:26:10;14.32;;;2.35;;
53261;SDS011;39658;51.090;-1.786;2023-08-12T09:28:40;14.20;;;3.10;;
53261;SDS011;39658;51.090;-1.786;2023-08-12T09:31:07;13.93;;;3.38;;
53261;SDS011;39658;51.090;-1.786;2023-08-12T09:33:38;16.88;;;3.10;;
53261;SDS011;39658;51.090;-1.786;2023-08-12T09:36:05;20.48;;;3.78;;
53261;SDS011;39658;51.090;-1.786;2023-08-12T09:38:32;12.38;;;3.53;;
53261;SDS011;39658;51.090;-1.786;2023-08-12T09:41:01;14.27;;;3.08;;
53261;SDS011;39658;51.090;-1.786;2023-08-12T09:43:28;10.63;;;2.42;;
53261;SDS011;39658;51.090;-1.786;2023-08-12T09:45:55;12.23;;;2.78;;
53261;SDS011;39658;51.090;-1.786;2023-08-12T09:48:25;10.90;;;2.97;;
53261;SDS011;39658;51.090;-1.786;2023-08-12T09:50:52;9.75;;;2.28;;
53261;SDS011;39658;51.090;-1.786;2023-08-12T09:53:19;5.95;;;1.08;;
53261;SDS011;39658;51.090;-1.786;2023-08-12T09:55:48;5.57;;;1.50;;
53261;SDS011;39658;51.090;-1.786;2023-08-12T09:58:20;7.72;;;1.60;;
53261;SDS011;39658;51.090;-1.786;2023-08-12T10:00:49;13.05;;;1.73;;
53261;SDS011;39658;51.090;-1.786;2023-08-12T10:03:17;7.45;;;1.50;;
53261;SDS011;39658;51.090;-1.786;2023-08-12T10:05:46;11.57;;;2.10;;
53261;SDS011;39658;51.090;-1.786;2023-08-12T10:08:14;15.95;;;3.00;;
53261;SDS011;39658;51.090;-1.786;2023-08-12T10:10:41;11.43;;;1.60;;
53261;SDS011;39658;51.090;-1.786;2023-08-12T10:13:09;6.68;;;1.58;;
53261;SDS011;39658;51.090;-1.786;2023-08-12T10:15:37;7.22;;;1.92;;
53261;SDS011;39658;51.090;-1.786;2023-08-12T10:18:05;6.53;;;1.42;;
53261;SDS011;39658;51.090;-1.786;2023-08-12T10:20:32;6.40;;;1.90;;
53261;SDS011;39658;51.090;-1.786;2023-08-12T10:23:01;10.77;;;1.38;;
53261;SDS011;39658;51.090;-1.786;2023-08-12T10:25:31;7.57;;;1.77;;
53261;SDS011;39658;51.090;-1.786;2023-08-12T10:27:59;8.30;;;1.60;;
53261;SDS011;39658;51.090;-1.786;2023-08-12T10:30:27;5.63;;;1.13;;
53261;SDS011;39658;51.090;-1.786;2023-08-12T10:32:57;8.15;;;2.03;;
53261;SDS011;39658;51.090;-1.786;2023-08-12T10:35:39;12.80;;;2.55;;
53261;SDS011;39658;51.090;-1.786;2023-08-12T10:38:07;10.50;;;1.65;;
53261;SDS011;39658;51.090;-1.786;2023-08-12T10:40:34;6.07;;;1.42;;
53261;SDS011;39658;51.090;-1.786;2023-08-12T10:43:01;10.10;;;2.00;;
53261;SDS011;39658;51.090;-1.786;2023-08-12T10:45:40;6.03;;;1.88;;
53261;SDS011;39658;51.090;-1.786;2023-08-12T10:48:17;8.98;;;1.60;;
53261;SDS011;39658;51.090;-1.786;2023-08-12T10:50:46;8.65;;;1.83;;
53261;SDS011;39658;51.090;-1.786;2023-08-12T10:53:24;7.88;;;1.13;;
53261;SDS011;39658;51.090;-1.786;2023-08-12T10:55:55;8.55;;;2.33;;
53261;SDS011;39658;51.090;-1.786;2023-08-12T10:58:24;9.25;;;2.15;;
53261;SDS011;39658;51.090;-1.786;2023-08-12T11:00:53;16.38;;;2.17;;
53261;SDS011;39658;51.090;-1.786;2023-08-12T11:03:21;8.50;;;1.58;;
53261;SDS011;39658;51.090;-1.786;2023-08-12T11:05:48;9.18;;;2.22;;
53261;SDS011;39658;51.090;-1.786;2023-08-12T11:08:23;7.47;;;1.60;;
53261;SDS011;39658;51.090;-1.786;2023-08-12T11:10:51;11.13;;;2.05;;
53261;SDS011;39658;51.090;-1.786;2023-08-12T11:13:20;11.50;;;2.15;;
53261;SDS011;39658;51.090;-1.786;2023-08-12T11:15:47;10.32;;;1.55;;
53261;SDS011;39658;51.090;-1.786;2023-08-12T11:18:15;4.75;;;1.00;;
53261;SDS011;39658;51.090;-1.786;2023-08-12T11:20:45;14.82;;;1.80;;
53261;SDS011;39658;51.090;-1.786;2023-08-12T11:23:14;6.00;;;0.82;;
53261;SDS011;39658;51.090;-1.786;2023-08-12T11:25:42;8.98;;;1.27;;
53261;SDS011;39658;51.090;-1.786;2023-08-12T11:28:10;6.13;;;1.67;;
53261;SDS011;39658;51.090;-1.786;2023-08-12T11:30:40;7.70;;;1.33;;
53261;SDS011;39658;51.090;-1.786;2023-08-12T11:33:08;12.20;;;1.70;;
53261;SDS011;39658;51.090;-1.786;2023-08-12T11:35:36;7.45;;;1.15;;
53261;SDS011;39658;51.090;-1.786;2023-08-12T11:38:05;9.98;;;2.00;;
53261;SDS011;39658;51.090;-1.786;2023-08-12T11:40:33;6.88;;;1.95;;
53261;SDS011;39658;51.090;-1.786;2023-08-12T11:43:01;8.93;;;1.10;;
53261;SDS011;39658;51.090;-1.786;2023-08-12T11:45:28;7.13;;;1.35;;
53261;SDS011;39658;51.090;-1.786;2023-08-12T11:47:55;12.55;;;2.00;;
53261;SDS011;39658;51.090;-1.786;2023-08-12T11:50:23;8.63;;;1.38;;
53261;SDS011;39658;51.090;-1.786;2023-08-12T11:52:51;5.07;;;2.00;;
53261;SDS011;39658;51.090;-1.786;2023-08-12T11:55:20;9.88;;;1.52;;
53261;SDS011;39658;51.090;-1.786;2023-08-12T11:57:47;17.20;;;1.73;;
53261;SDS011;39658;51.090;-1.786;2023-08-12T12:00:14;6.40;;;1.40;;
53261;SDS011;39658;51.090;-1.786;2023-08-12T12:02:45;8.15;;;1.80;;
53261;SDS011;39658;51.090;-1.786;2023-08-12T12:05:15;12.82;;;2.70;;
53261;SDS011;39658;51.090;-1.786;2023-08-12T12:07:42;7.22;;;1.75;;
53261;SDS011;39658;51.090;-1.786;2023-08-12T12:10:12;7.30;;;1.42;;
53261;SDS011;39658;51.090;-1.786;2023-08-12T12:12:43;5.82;;;1.58;;
53261;SDS011;39658;51.090;-1.786;2023-08-12T12:15:12;11.32;;;2.70;;
53261;SDS011;39658;51.090;-1.786;2023-08-12T12:17:39;8.80;;;2.13;;
53261;SDS011;39658;51.090;-1.786;2023-08-12T12:20:07;10.80;;;2.55;;
53261;SDS011;39658;51.090;-1.786;2023-08-12T12:22:36;7.75;;;1.88;;
53261;SDS011;39658;51.090;-1.786;2023-08-12T12:25:07;6.93;;;1.48;;
53261;SDS011;39658;51.090;-1.786;2023-08-12T12:27:36;6.78;;;1.83;;
53261;SDS011;39658;51.090;-1.786;2023-08-12T12:30:07;10.90;;;2.47;;
53261;SDS011;39658;51.090;-1.786;2023-08-12T12:32:34;7.75;;;1.65;;
53261;SDS011;39658;51.090;-1.786;2023-08-12T12:35:01;7.72;;;2.13;;
53261;SDS011;39658;51.090;-1.786;2023-08-12T12:37:28;7.43;;;1.80;;
53261;SDS011;39658;51.090;-1.786;2023-08-12T12:39:55;6.40;;;1.40;;
53261;SDS011;39658;51.090;-1.786;2023-08-12T12:42:22;9.52;;;1.75;;
53261;SDS011;39658;51.090;-1.786;2023-08-12T12:44:49;6.88;;;1.63;;
53261;SDS011;39658;51.090;-1.786;2023-08-12T12:47:17;11.52;;;1.90;;
53261;SDS011;39658;51.090;-1.786;2023-08-12T12:52:12;8.95;;;2.00;;
53261;SDS011;39658;51.090;-1.786;2023-08-12T12:54:39;12.88;;;1.95;;
53261;SDS011;39658;51.090;-1.786;2023-08-12T12:57:06;10.10;;;1.63;;
53261;SDS011;39658;51.090;-1.786;2023-08-12T12:59:33;10.15;;;1.92;;
53261;SDS011;39658;51.090;-1.786;2023-08-12T13:02:00;5.95;;;1.33;;
53261;SDS011;39658;51.090;-1.786;2023-08-12T13:04:28;9.35;;;1.80;;
53261;SDS011;39658;51.090;-1.786;2023-08-12T13:06:55;9.90;;;1.70;;
53261;SDS011;39658;51.090;-1.786;2023-08-12T13:09:22;8.85;;;1.67;;
53261;SDS011;39658;51.090;-1.786;2023-08-12T13:11:49;4.35;;;1.10;;
53261;SDS011;39658;51.090;-1.786;2023-08-12T13:14:16;8.65;;;1.20;;
53261;SDS011;39658;51.090;-1.786;2023-08-12T13:16:46;5.43;;;2.17;;
53261;SDS011;39658;51.090;-1.786;2023-08-12T13:19:12;7.38;;;1.67;;
53261;SDS011;39658;51.090;-1.786;2023-08-12T13:21:41;8.75;;;2.90;;
53261;SDS011;39658;51.090;-1.786;2023-08-12T13:24:08;5.50;;;1.17;;
53261;SDS011;39658;51.090;-1.786;2023-08-12T13:26:34;7.38;;;2.10;;
53261;SDS011;39658;51.090;-1.786;2023-08-12T13:29:02;5.10;;;1.45;;
53261;SDS011;39658;51.090;-1.786;2023-08-12T13:31:29;10.90;;;1.88;;
53261;SDS011;39658;51.090;-1.786;2023-08-12T13:33:56;9.00;;;1.25;;
53261;SDS011;39658;51.090;-1.786;2023-08-12T13:36:23;5.78;;;1.17;;
53261;SDS011;39658;51.090;-1.786;2023-08-12T13:38:52;5.00;;;1.35;;
53261;SDS011;39658;51.090;-1.786;2023-08-12T13:41:18;4.45;;;1.13;;
53261;SDS011;39658;51.090;-1.786;2023-08-12T13:43:45;5.90;;;1.20;;
53261;SDS011;39658;51.090;-1.786;2023-08-12T13:46:12;7.90;;;2.08;;
53261;SDS011;39658;51.090;-1.786;2023-08-12T13:48:39;3.90;;;0.80;;
53261;SDS011;39658;51.090;-1.786;2023-08-12T13:51:07;8.27;;;1.33;;
53261;SDS011;39658;51.090;-1.786;2023-08-12T13:53:35;9.40;;;1.75;;
53261;SDS011;39658;51.090;-1.786;2023-08-12T13:56:03;6.05;;;1.52;;
53261;SDS011;39658;51.090;-1.786;2023-08-12T13:58:30;5.55;;;0.95;;
53261;SDS011;39658;51.090;-1.786;2023-08-12T14:00:57;6.05;;;1.80;;
53261;SDS011;39658;51.090;-1.786;2023-08-12T14:03:23;3.97;;;1.15;;
53261;SDS011;39658;51.090;-1.786;2023-08-12T14:05:50;7.68;;;1.25;;
53261;SDS011;39658;51.090;-1.786;2023-08-12T14:08:17;5.47;;;1.42;;
53261;SDS011;39658;51.090;-1.786;2023-08-12T14:10:45;2.92;;;1.38;;
53261;SDS011;39658;51.090;-1.786;2023-08-12T14:13:14;4.75;;;1.05;;
53261;SDS011;39658;51.090;-1.786;2023-08-12T14:15:40;6.50;;;1.20;;
53261;SDS011;39658;51.090;-1.786;2023-08-12T14:18:08;7.53;;;1.60;;
53261;SDS011;39658;51.090;-1.786;2023-08-12T14:20:34;7.97;;;1.50;;
53261;SDS011;39658;51.090;-1.786;2023-08-12T14:23:01;7.22;;;1.63;;
53261;SDS011;39658;51.090;-1.786;2023-08-12T14:25:28;8.57;;;1.60;;
53261;SDS011;39658;51.090;-1.786;2023-08-12T14:27:56;5.32;;;1.23;;
53261;SDS011;39658;51.090;-1.786;2023-08-12T14:30:24;8.27;;;1.23;;
53261;SDS011;39658;51.090;-1.786;2023-08-12T14:32:51;6.25;;;1.25;;